createdAt,value
2023-01-17T00:00:07.323Z,4.93
2023-01-17T00:05:29.413Z,6.97
2023-01-17T00:10:32.318Z,6.30
2023-01-17T00:15:35.363Z,6.43
2023-01-17T00:20:57.256Z,12.35
2023-01-17T00:26:05.979Z,6.25
2023-01-17T00:31:10.745Z,6.22
2023-01-17T00:36:14.119Z,9.90
2023-01-17T00:41:16.794Z,11.45
2023-01-17T00:46:38.877Z,8.82
2023-01-17T00:52:00.004Z,4.28
2023-01-17T00:57:21.167Z,5.68
2023-01-17T01:02:42.902Z,6.68
2023-01-17T01:08:04.347Z,8.95
2023-01-17T01:13:25.788Z,8.45
2023-01-17T01:18:47.645Z,7.68
2023-01-17T01:24:09.072Z,10.93
2023-01-17T01:29:30.348Z,10.68
2023-01-17T01:34:33.265Z,9.18
2023-01-17T01:39:36.223Z,14.65
2023-01-17T01:44:59.209Z,13.10
2023-01-17T01:50:06.077Z,10.82
2023-01-17T01:55:18.809Z,6.05
2023-01-17T02:00:30.070Z,10.88
2023-01-17T02:05:34.490Z,8.27
2023-01-17T02:10:39.867Z,8.00
2023-01-17T02:20:59.407Z,8.02
2023-01-17T02:26:40.143Z,5.10
2023-01-17T02:31:51.889Z,5.97
2023-01-17T02:37:11.996Z,8.70
2023-01-17T02:42:20.984Z,9.75
2023-01-17T02:47:29.518Z,14.15
2023-01-17T02:52:56.456Z,8.93
2023-01-17T02:58:13.472Z,8.60
2023-01-17T03:03:28.499Z,6.82
2023-01-17T03:08:31.886Z,6.90
2023-01-17T03:13:34.677Z,9.23
2023-01-17T03:18:37.501Z,8.05
2023-01-17T03:23:40.378Z,8.90
2023-01-17T03:28:43.469Z,5.78
2023-01-17T03:33:46.933Z,9.77
2023-01-17T03:38:49.735Z,7.45
2023-01-17T03:43:52.518Z,13.75
2023-01-17T03:48:55.817Z,9.20
2023-01-17T03:53:58.537Z,8.13
2023-01-17T03:59:01.336Z,8.57
2023-01-17T04:04:04.181Z,10.88
2023-01-17T04:09:07.023Z,7.63
2023-01-17T04:14:09.794Z,10.40
2023-01-17T04:19:13.987Z,11.32
2023-01-17T04:24:18.004Z,9.13
2023-01-17T04:29:21.401Z,6.53
2023-01-17T04:34:24.624Z,9.13
2023-01-17T04:39:27.740Z,10.57
2023-01-17T04:44:30.826Z,9.50
2023-01-17T04:49:33.762Z,7.53
2023-01-17T04:54:36.675Z,11.52
2023-01-17T04:59:39.284Z,10.73
2023-01-17T05:04:42.097Z,7.43
2023-01-17T05:09:44.852Z,9.20
2023-01-17T05:14:47.708Z,8.75
2023-01-17T05:19:52.034Z,8.38
2023-01-17T05:24:54.843Z,10.32
2023-01-17T05:29:58.297Z,8.40
2023-01-17T05:35:02.966Z,11.65
2023-01-17T05:40:10.311Z,4.82
2023-01-17T05:45:17.023Z,10.18
2023-01-17T05:50:56.515Z,9.20
2023-01-17T05:56:21.299Z,8.93
2023-01-17T06:01:42.303Z,9.38
2023-01-17T06:06:45.178Z,6.55
2023-01-17T06:11:48.026Z,8.60
2023-01-17T06:16:50.896Z,10.18
2023-01-17T06:22:00.911Z,12.85
2023-01-17T06:27:04.797Z,9.10
2023-01-17T06:32:17.766Z,7.32
2023-01-17T06:37:20.424Z,7.00
2023-01-17T06:42:23.513Z,5.68
2023-01-17T06:47:26.418Z,6.25
2023-01-17T06:52:29.495Z,5.45
2023-01-17T06:57:32.355Z,7.30
2023-01-17T07:02:35.315Z,7.63
2023-01-17T07:07:38.144Z,7.72
2023-01-17T07:12:41.324Z,10.65
2023-01-17T07:18:14.241Z,11.05
2023-01-17T07:23:40.597Z,14.10
2023-01-17T07:28:43.508Z,9.23
2023-01-17T07:33:46.507Z,8.25
2023-01-17T07:39:21.759Z,16.02
2023-01-17T07:44:25.305Z,6.75
2023-01-17T07:50:02.164Z,12.15
2023-01-17T07:55:06.122Z,8.25
2023-01-17T08:00:09.687Z,6.35
2023-01-17T08:05:16.157Z,8.27
2023-01-17T08:10:19.629Z,7.72
2023-01-17T08:15:23.974Z,8.45
2023-01-17T08:20:28.145Z,7.47
2023-01-17T08:25:33.570Z,14.93
2023-01-17T08:30:36.616Z,9.55
2023-01-17T08:35:39.375Z,7.65
2023-01-17T08:41:46.615Z,9.75
2023-01-17T08:46:50.129Z,7.72
2023-01-17T09:00:01.573Z,10.75
2023-01-17T09:05:08.485Z,7.40
2023-01-17T09:10:14.072Z,9.90
2023-01-17T09:15:20.510Z,7.40
2023-01-17T09:20:24.479Z,9.43
2023-01-17T09:25:27.774Z,6.78
2023-01-17T09:30:30.645Z,6.70
2023-01-17T09:35:38.689Z,6.82
2023-01-17T09:40:47.928Z,6.38
2023-01-17T09:45:51.118Z,6.43
2023-01-17T09:51:00.837Z,7.03
2023-01-17T09:56:14.538Z,8.75
2023-01-17T10:01:27.567Z,7.18
2023-01-17T10:06:54.287Z,6.45
2023-01-17T10:12:39.163Z,12.13
2023-01-17T10:18:03.421Z,10.52
2023-01-17T10:23:18.455Z,6.03
2023-01-17T10:28:25.599Z,7.10
2023-01-17T10:33:36.455Z,6.80
2023-01-17T10:38:42.203Z,4.82
2023-01-17T10:43:55.526Z,7.95
2023-01-17T10:48:58.846Z,5.90
2023-01-17T10:54:04.815Z,6.65
2023-01-17T10:59:33.820Z,5.97
2023-01-17T11:04:40.614Z,6.45
2023-01-17T11:09:50.028Z,4.95
2023-01-17T11:15:04.945Z,6.05
2023-01-17T11:20:35.646Z,6.00
2023-01-17T11:25:39.428Z,5.00
2023-01-17T11:30:56.499Z,10.88
2023-01-17T11:35:59.486Z,7.35
2023-01-17T11:41:21.900Z,7.13
2023-01-17T11:46:25.631Z,6.93
2023-01-17T11:51:39.523Z,7.68
2023-01-17T11:56:46.476Z,6.18
2023-01-17T12:02:06.437Z,7.80
2023-01-17T12:07:38.525Z,9.98
2023-01-17T12:13:05.778Z,8.70
2023-01-17T12:18:45.894Z,11.02
2023-01-17T12:24:01.015Z,7.22
2023-01-17T12:29:28.050Z,9.60
2023-01-17T12:34:39.174Z,12.05
2023-01-17T12:39:49.608Z,12.82
2023-01-17T12:45:38.804Z,8.32
2023-01-17T12:50:51.401Z,8.98
2023-01-17T12:56:23.618Z,10.85
2023-01-17T13:01:40.028Z,10.52
2023-01-17T13:07:05.885Z,8.60
2023-01-17T13:12:15.500Z,8.70
2023-01-17T13:17:47.242Z,13.65
2023-01-17T13:22:52.366Z,22.08
2023-01-17T13:28:07.204Z,11.35
2023-01-17T13:33:37.562Z,9.90
2023-01-17T13:39:00.828Z,5.10
2023-01-17T13:44:23.228Z,15.52
2023-01-17T13:49:43.495Z,8.68
2023-01-17T13:54:52.884Z,19.75
2023-01-17T13:59:57.908Z,6.88
2023-01-17T14:05:18.827Z,13.82
2023-01-17T14:10:36.166Z,12.15
2023-01-17T14:15:50.163Z,12.90
2023-01-17T14:21:08.059Z,11.07
2023-01-17T14:26:22.733Z,10.45
2023-01-17T14:31:26.871Z,8.45
2023-01-17T14:36:33.515Z,9.00
2023-01-17T14:41:36.468Z,10.43
2023-01-17T14:46:39.363Z,10.88
2023-01-17T14:51:42.443Z,8.63
2023-01-17T14:56:48.435Z,8.80
2023-01-17T15:02:07.734Z,12.27
2023-01-17T15:07:19.083Z,7.38
2023-01-17T15:12:22.023Z,8.25
2023-01-17T15:17:25.225Z,7.63
2023-01-17T15:22:30.032Z,8.73
2023-01-17T15:27:33.183Z,7.15
2023-01-17T15:32:38.168Z,9.02
2023-01-17T15:37:42.004Z,8.27
2023-01-17T15:43:05.409Z,4.95
2023-01-17T15:48:26.591Z,7.88
2023-01-17T15:53:37.953Z,6.88
2023-01-17T15:58:40.862Z,7.07
2023-01-17T16:03:55.526Z,9.88
2023-01-17T16:08:58.560Z,6.82
2023-01-17T16:14:01.743Z,6.43
2023-01-17T16:19:05.691Z,5.00
2023-01-17T16:24:11.346Z,6.00
2023-01-17T16:29:14.225Z,8.13
2023-01-17T16:34:17.029Z,9.88
2023-01-17T16:39:19.898Z,4.75
2023-01-17T16:44:22.956Z,8.55
2023-01-17T16:49:25.819Z,7.20
2023-01-17T16:54:28.690Z,4.95
2023-01-17T16:59:45.930Z,4.90
2023-01-17T17:04:52.816Z,4.30
2023-01-17T17:09:55.746Z,6.03
2023-01-17T17:14:58.476Z,6.90
2023-01-17T17:20:01.204Z,5.50
2023-01-17T17:25:08.132Z,6.72
2023-01-17T17:30:11.842Z,5.75
2023-01-17T17:35:14.978Z,7.53
2023-01-17T17:40:18.194Z,5.53
2023-01-17T17:45:21.210Z,5.57
2023-01-17T17:50:24.130Z,6.78
2023-01-17T17:55:27.326Z,3.83
2023-01-17T18:00:30.062Z,5.70
2023-01-17T18:05:33.012Z,11.52
2023-01-17T18:10:35.990Z,5.25
2023-01-17T18:15:38.714Z,5.60
2023-01-17T18:20:41.717Z,4.45
2023-01-17T18:25:44.887Z,4.00
2023-01-17T18:30:47.745Z,7.72
2023-01-17T18:35:54.959Z,2.95
2023-01-17T18:41:03.285Z,5.95
2023-01-17T18:46:07.311Z,11.00
2023-01-17T18:51:15.730Z,4.20
2023-01-17T18:56:20.774Z,4.65
2023-01-17T19:01:26.194Z,9.82
2023-01-17T19:06:34.743Z,3.65
2023-01-17T19:11:37.673Z,3.92
2023-01-17T19:16:41.886Z,5.50
2023-01-17T19:21:45.280Z,6.18
2023-01-17T19:26:53.162Z,4.38
2023-01-17T19:31:56.066Z,10.73
2023-01-17T19:36:59.166Z,4.90
2023-01-17T19:42:02.132Z,6.70
2023-01-17T19:47:05.012Z,20.70
2023-01-17T19:52:07.877Z,5.80
2023-01-17T19:57:10.751Z,5.43
2023-01-17T20:02:13.637Z,5.68
2023-01-17T20:07:16.734Z,6.22
2023-01-17T20:12:19.849Z,6.45
2023-01-17T20:17:22.756Z,8.57
2023-01-17T20:22:25.626Z,5.38
2023-01-17T20:27:28.794Z,16.33
2023-01-17T20:32:31.684Z,9.43
2023-01-17T20:37:34.501Z,12.43
2023-01-17T20:42:37.413Z,16.45
2023-01-17T20:47:41.644Z,8.93
2023-01-17T20:52:45.080Z,21.48
2023-01-17T20:57:48.108Z,14.13
2023-01-17T21:02:51.061Z,17.13
2023-01-17T21:07:54.210Z,19.98
2023-01-17T21:12:57.342Z,13.43
2023-01-17T21:18:00.539Z,16.45
2023-01-17T21:23:03.240Z,23.83
2023-01-17T21:28:06.584Z,13.15
2023-01-17T21:33:09.603Z,23.90
2023-01-17T21:38:14.130Z,20.27
2023-01-17T21:43:17.078Z,27.92
2023-01-17T21:48:20.128Z,38.78
2023-01-17T21:53:22.973Z,23.55
2023-01-17T21:58:43.850Z,31.48
2023-01-17T22:03:51.664Z,32.92
2023-01-17T22:08:55.157Z,43.50
2023-01-17T22:13:59.299Z,39.95
2023-01-17T22:19:02.258Z,42.90
2023-01-17T22:24:05.735Z,37.83
2023-01-17T22:29:11.384Z,50.42
2023-01-17T22:34:15.745Z,50.72
2023-01-17T22:39:18.630Z,48.67
2023-01-17T22:44:21.609Z,57.72
2023-01-17T22:49:24.858Z,60.17
2023-01-17T22:54:27.660Z,33.78
2023-01-17T22:59:30.554Z,43.20
2023-01-17T23:04:33.404Z,42.88
2023-01-17T23:09:36.298Z,44.20
2023-01-17T23:14:57.388Z,44.55
2023-01-17T23:20:00.149Z,59.97
2023-01-17T23:25:08.963Z,54.63
2023-01-17T23:30:14.590Z,47.60
2023-01-17T23:35:19.282Z,42.92
2023-01-17T23:40:22.349Z,50.53
2023-01-17T23:45:25.412Z,46.25
2023-01-17T23:50:28.411Z,44.58
2023-01-17T23:55:31.255Z,44.08
